Terminal Aerodrome Forecast
Issued by NWS Wilmington, OH

Current Version | Previous Version | Text Only | Print | Product List | Glossary Off
Versions: 1 2 3 4 5 6 7 8 9 10 11 12 13 14 15 16 17 18 19 20 21 22 23 24 25 26 27 28 29

000
FTUS41 KILN 232320
TAFILN
TAF
KILN 232320Z 2400/2424 36005KT P6SM SCT100 BKN200
     FM240900 02005KT 5SM BR SCT025 BKN100
     FM241100 02005KT 2SM BR SCT015 BKN025
     FM241400 05008KT P6SM SCT040=

USA.gov is the U.S. government's official web portal to all federal, state and local government web resources and services.